createdAt,value
2023-03-04T00:01:23.401Z,4.89
2023-03-04T00:03:51.846Z,4.94
2023-03-04T00:06:20.061Z,4.92
2023-03-04T00:08:48.153Z,4.92
2023-03-04T00:11:16.770Z,4.91
2023-03-04T00:13:45.151Z,4.92
2023-03-04T00:16:13.665Z,4.88
2023-03-04T00:18:42.090Z,4.82
2023-03-04T00:21:10.584Z,4.71
2023-03-04T00:23:38.954Z,4.73
2023-03-04T00:26:09.826Z,4.63
2023-03-04T00:28:38.904Z,4.27
2023-03-04T00:31:08.573Z,4.61
2023-03-04T00:33:39.333Z,4.68
2023-03-04T00:36:08.330Z,4.51
2023-03-04T00:38:36.764Z,4.59
2023-03-04T00:41:05.310Z,4.28
2023-03-04T00:43:33.842Z,4.48
2023-03-04T00:46:02.527Z,4.50
2023-03-04T00:48:31.064Z,4.61
2023-03-04T00:50:59.362Z,4.74
2023-03-04T00:53:27.852Z,4.45
2023-03-04T00:55:56.129Z,4.68
2023-03-04T00:58:25.202Z,4.77
2023-03-04T01:00:53.502Z,4.72
2023-03-04T01:03:21.922Z,4.93
2023-03-04T01:05:52.975Z,4.80
2023-03-04T01:08:21.462Z,4.91
2023-03-04T01:10:49.919Z,4.97
2023-03-04T01:13:19.029Z,4.95
2023-03-04T01:15:50.639Z,5.04
2023-03-04T01:18:18.964Z,5.08
2023-03-04T01:20:47.269Z,5.06
2023-03-04T01:23:15.990Z,5.15
2023-03-04T01:25:44.365Z,5.13
2023-03-04T01:28:12.758Z,5.19
2023-03-04T01:30:41.358Z,5.22
2023-03-04T01:33:10.175Z,5.22
2023-03-04T01:35:38.782Z,5.19
2023-03-04T01:38:07.261Z,5.23
2023-03-04T01:40:35.716Z,5.26
2023-03-04T01:43:04.214Z,5.32
2023-03-04T01:45:33.474Z,5.22
2023-03-04T01:48:02.322Z,5.24
2023-03-04T01:50:34.460Z,5.21
2023-03-04T01:53:04.674Z,5.16
2023-03-04T01:55:33.592Z,5.29
2023-03-04T01:58:02.047Z,5.30
2023-03-04T02:00:34.302Z,5.31
2023-03-04T02:03:09.126Z,5.30
2023-03-04T02:05:44.860Z,5.33
2023-03-04T02:08:15.410Z,5.35
2023-03-04T02:10:44.654Z,5.34
2023-03-04T02:13:14.149Z,5.24
2023-03-04T02:15:46.884Z,5.33
2023-03-04T02:18:21.862Z,5.36
2023-03-04T02:21:12.300Z,5.37
2023-03-04T02:24:01.106Z,5.31
2023-03-04T02:26:31.916Z,5.30
2023-03-04T02:29:02.036Z,5.33
2023-03-04T02:31:45.863Z,5.35
2023-03-04T02:34:15.580Z,5.38
2023-03-04T02:36:45.855Z,5.42
2023-03-04T02:39:32.759Z,5.38
2023-03-04T02:42:02.272Z,5.37
2023-03-04T02:44:32.982Z,5.45
2023-03-04T02:47:02.837Z,5.45
2023-03-04T02:49:34.000Z,5.45
2023-03-04T02:52:10.514Z,5.41
2023-03-04T02:54:39.882Z,5.30
2023-03-04T02:57:13.315Z,5.36
2023-03-04T02:59:42.562Z,5.33
2023-03-04T03:02:10.936Z,5.40
2023-03-04T03:04:41.076Z,5.42
2023-03-04T03:07:09.558Z,5.44
2023-03-04T03:09:37.945Z,5.48
2023-03-04T03:12:06.590Z,5.54
2023-03-04T03:14:35.058Z,5.49
2023-03-04T03:17:03.274Z,5.49
2023-03-04T03:19:31.567Z,5.53
2023-03-04T03:21:59.904Z,5.55
2023-03-04T03:24:28.331Z,5.56
2023-03-04T03:26:56.624Z,5.64
2023-03-04T03:29:24.906Z,5.64
2023-03-04T03:31:53.146Z,5.61
2023-03-04T03:34:21.650Z,5.60
2023-03-04T03:36:50.776Z,5.64
2023-03-04T03:39:19.004Z,5.75
2023-03-04T03:41:47.545Z,5.74
2023-03-04T03:44:16.541Z,5.73
2023-03-04T03:46:45.142Z,5.71
2023-03-04T03:49:13.642Z,5.70
2023-03-04T03:51:42.089Z,5.73
2023-03-04T03:54:10.559Z,5.75
2023-03-04T03:56:38.732Z,5.73
2023-03-04T03:59:07.238Z,5.69
2023-03-04T04:01:35.499Z,5.64
2023-03-04T04:04:04.351Z,5.63
2023-03-04T04:06:32.956Z,5.64
2023-03-04T04:09:01.387Z,5.69
2023-03-04T04:11:29.956Z,5.69
2023-03-04T04:13:58.285Z,5.64
2023-03-04T04:16:28.889Z,5.59
2023-03-04T04:18:57.440Z,5.58
2023-03-04T04:21:25.559Z,5.60
2023-03-04T04:23:53.830Z,5.64
2023-03-04T04:26:22.298Z,5.68
2023-03-04T04:28:50.557Z,5.69
2023-03-04T04:31:19.800Z,5.74
2023-03-04T04:33:47.933Z,5.79
2023-03-04T04:36:16.937Z,5.76
2023-03-04T04:38:46.044Z,5.71
2023-03-04T04:41:25.410Z,5.71
2023-03-04T04:43:54.256Z,5.77
2023-03-04T04:46:22.704Z,5.81
2023-03-04T04:48:50.970Z,5.83
2023-03-04T04:51:22.117Z,5.70
2023-03-04T04:53:50.542Z,5.78
2023-03-04T04:56:23.257Z,5.82
2023-03-04T04:58:51.413Z,5.72
2023-03-04T05:01:19.584Z,5.50
2023-03-04T05:03:50.053Z,5.70
2023-03-04T05:06:18.689Z,5.72
2023-03-04T05:08:47.135Z,5.73
2023-03-04T05:11:16.039Z,5.70
2023-03-04T05:13:44.680Z,5.57
2023-03-04T05:16:13.779Z,5.66
2023-03-04T05:18:42.212Z,5.59
2023-03-04T05:21:10.918Z,5.62
2023-03-04T05:23:43.517Z,5.50
2023-03-04T05:26:15.848Z,5.60
2023-03-04T05:28:44.431Z,5.63
2023-03-04T05:31:13.096Z,5.71
2023-03-04T05:33:41.309Z,5.56
2023-03-04T05:36:10.362Z,5.62
2023-03-04T05:38:38.775Z,5.57
2023-03-04T05:41:08.308Z,5.61
2023-03-04T05:43:36.781Z,5.76
2023-03-04T05:46:05.375Z,5.78
2023-03-04T05:48:33.740Z,5.79
2023-03-04T05:51:02.845Z,5.83
2023-03-04T05:53:31.488Z,5.85
2023-03-04T05:56:00.885Z,5.95
2023-03-04T05:58:29.307Z,5.96
2023-03-04T06:01:00.928Z,5.82
2023-03-04T06:03:40.093Z,5.79
2023-03-04T06:06:11.223Z,5.76
2023-03-04T06:08:39.948Z,5.74
2023-03-04T06:11:11.025Z,5.89
2023-03-04T06:13:39.389Z,5.94
2023-03-04T06:16:08.029Z,5.85
2023-03-04T06:18:36.321Z,5.86
2023-03-04T06:21:04.927Z,5.75
2023-03-04T06:23:33.352Z,5.97
2023-03-04T06:26:03.506Z,5.97
2023-03-04T06:28:32.128Z,5.99
2023-03-04T06:31:00.751Z,6.01
2023-03-04T06:33:29.089Z,6.09
2023-03-04T06:35:58.404Z,6.16
2023-03-04T06:38:27.807Z,6.12
2023-03-04T06:40:57.568Z,6.09
2023-03-04T06:43:26.298Z,6.01
2023-03-04T06:45:55.776Z,6.16
2023-03-04T06:48:24.286Z,6.15
2023-03-04T06:50:52.658Z,6.20
2023-03-04T06:53:21.373Z,6.07
2023-03-04T06:55:50.226Z,6.15
2023-03-04T06:58:18.780Z,6.18
2023-03-04T07:00:46.924Z,6.20
2023-03-04T07:03:15.222Z,6.25
2023-03-04T07:05:44.010Z,6.17
2023-03-04T07:08:12.087Z,6.08
2023-03-04T07:10:40.324Z,5.99
2023-03-04T07:13:08.553Z,6.12
2023-03-04T07:15:38.756Z,6.15
2023-03-04T07:18:07.772Z,6.17
2023-03-04T07:20:35.992Z,6.36
2023-03-04T07:23:05.386Z,6.11
2023-03-04T07:25:34.325Z,6.31
2023-03-04T07:28:03.370Z,6.33
2023-03-04T07:30:31.856Z,6.39
2023-03-04T07:33:00.234Z,6.19
2023-03-04T07:35:28.920Z,6.35
2023-03-04T07:37:57.349Z,6.20
2023-03-04T07:40:26.272Z,6.17
2023-03-04T07:42:56.356Z,6.15
2023-03-04T07:45:25.301Z,5.95
2023-03-04T07:47:54.537Z,6.22
2023-03-04T07:50:23.624Z,6.03
2023-03-04T07:52:52.370Z,6.20
2023-03-04T07:55:20.739Z,6.42
2023-03-04T07:57:48.989Z,6.44
2023-03-04T08:00:18.188Z,6.44
2023-03-04T08:02:46.813Z,6.41
2023-03-04T08:05:15.849Z,6.30
2023-03-04T08:07:44.054Z,6.35
2023-03-04T08:10:12.676Z,6.40
2023-03-04T08:12:41.170Z,6.23
2023-03-04T08:15:09.816Z,6.48
2023-03-04T08:17:38.823Z,6.55
2023-03-04T08:20:08.817Z,6.37
2023-03-04T08:22:37.466Z,6.31
2023-03-04T08:25:06.153Z,6.49
2023-03-04T08:27:34.947Z,6.55
2023-03-04T08:30:05.637Z,6.55
2023-03-04T08:32:34.113Z,6.52
2023-03-04T08:35:02.989Z,6.37
2023-03-04T08:37:31.354Z,6.60
2023-03-04T08:40:02.452Z,6.69
2023-03-04T08:42:32.400Z,6.73
2023-03-04T08:45:00.625Z,6.76
2023-03-04T08:47:29.848Z,6.74
2023-03-04T08:49:58.834Z,6.81
2023-03-04T08:52:28.853Z,6.98
2023-03-04T08:54:57.711Z,6.75
2023-03-04T08:57:26.097Z,6.73
2023-03-04T08:59:54.197Z,6.80
2023-03-04T09:02:22.702Z,6.92
2023-03-04T09:04:50.938Z,6.97
2023-03-04T09:07:19.477Z,6.95
2023-03-04T09:09:47.853Z,7.02
2023-03-04T09:12:16.296Z,7.03
2023-03-04T09:14:44.602Z,7.08
2023-03-04T09:17:12.843Z,7.11
2023-03-04T09:19:41.060Z,7.03
2023-03-04T09:22:10.044Z,7.04
2023-03-04T09:24:38.394Z,6.93
2023-03-04T09:27:09.659Z,7.03
2023-03-04T09:29:37.724Z,7.06
2023-03-04T09:32:06.475Z,7.13
2023-03-04T09:34:34.964Z,7.02
2023-03-04T09:37:03.378Z,6.96
2023-03-04T09:39:34.203Z,6.96
2023-03-04T09:42:04.594Z,6.85
2023-03-04T09:44:43.511Z,6.85
2023-03-04T09:47:17.287Z,6.77
2023-03-04T09:49:59.413Z,6.71
2023-03-04T09:52:42.967Z,6.66
2023-03-04T09:55:28.036Z,6.70
2023-03-04T09:58:22.295Z,6.74
2023-03-04T10:01:05.378Z,6.66
2023-03-04T10:03:45.439Z,6.69
2023-03-04T10:06:19.836Z,6.76
2023-03-04T10:09:04.605Z,6.82
2023-03-04T10:11:42.996Z,6.79
2023-03-04T10:14:23.675Z,6.75
2023-03-04T10:17:08.142Z,6.75
2023-03-04T10:20:04.641Z,6.71
2023-03-04T10:22:39.549Z,6.67
2023-03-04T10:25:30.382Z,6.75
2023-03-04T10:28:03.558Z,6.74
2023-03-04T10:31:00.499Z,6.82
2023-03-04T10:33:40.272Z,6.73
2023-03-04T10:36:17.989Z,6.76
2023-03-04T10:38:51.215Z,6.81
2023-03-04T10:41:25.094Z,6.92
2023-03-04T10:44:17.251Z,7.02
2023-03-04T10:46:48.176Z,6.96
2023-03-04T10:49:20.051Z,7.12
2023-03-04T10:51:55.912Z,7.28
2023-03-04T10:54:42.052Z,7.39
2023-03-04T10:57:20.010Z,7.48
2023-03-04T11:00:01.647Z,7.65
2023-03-04T11:02:37.818Z,7.83
2023-03-04T11:05:15.739Z,7.88
2023-03-04T11:08:05.093Z,7.84
2023-03-04T11:10:36.416Z,7.76
2023-03-04T11:13:24.461Z,7.96
2023-03-04T11:16:05.114Z,8.21
2023-03-04T11:18:41.890Z,8.47
2023-03-04T11:21:40.198Z,8.56
2023-03-04T11:24:29.062Z,8.61
2023-03-04T11:27:06.469Z,8.72
2023-03-04T11:29:56.350Z,8.84
2023-03-04T11:32:41.246Z,8.76
2023-03-04T11:35:27.435Z,8.73
2023-03-04T11:38:19.919Z,8.57
2023-03-04T11:40:57.834Z,8.51
2023-03-04T11:43:37.388Z,8.53
2023-03-04T11:46:14.908Z,8.40
2023-03-04T11:48:49.043Z,8.49
2023-03-04T11:51:41.670Z,8.51
2023-03-04T11:54:32.241Z,8.54
2023-03-04T11:57:13.760Z,8.54
2023-03-04T11:59:42.282Z,8.59
2023-03-04T12:02:29.462Z,8.75
2023-03-04T12:05:38.293Z,9.03
2023-03-04T12:08:31.035Z,9.15
2023-03-04T12:11:28.272Z,9.59
2023-03-04T12:14:02.305Z,12.15
2023-03-04T12:16:45.803Z,14.49
2023-03-04T12:19:23.257Z,16.33
2023-03-04T12:22:22.601Z,16.42
2023-03-04T12:25:30.628Z,16.53
2023-03-04T12:28:24.444Z,16.38
2023-03-04T12:31:24.342Z,16.86
2023-03-04T12:34:23.769Z,18.33
2023-03-04T12:37:10.137Z,19.08
2023-03-04T12:39:45.315Z,20.23
2023-03-04T12:42:31.427Z,22.41
2023-03-04T12:45:11.144Z,22.26
2023-03-04T12:47:55.604Z,22.19
2023-03-04T12:50:38.827Z,23.95
2023-03-04T12:53:14.210Z,24.99
2023-03-04T12:55:45.842Z,24.29
2023-03-04T12:58:20.167Z,23.36
2023-03-04T13:00:53.982Z,23.08
2023-03-04T13:03:38.344Z,24.44
2023-03-04T13:06:48.012Z,26.33
2023-03-04T13:09:27.297Z,28.00
2023-03-04T13:12:12.172Z,29.19
2023-03-04T13:14:40.686Z,29.42
2023-03-04T13:17:43.880Z,29.53
2023-03-04T13:20:30.615Z,30.33
2023-03-04T13:23:14.461Z,30.57
2023-03-04T13:26:04.422Z,30.61
2023-03-04T13:28:36.274Z,30.90
2023-03-04T13:31:10.962Z,31.53
2023-03-04T13:33:39.488Z,32.26
2023-03-04T13:36:32.866Z,32.71
2023-03-04T13:39:16.719Z,31.66
2023-03-04T13:41:54.212Z,30.88
2023-03-04T13:44:45.887Z,28.99
2023-03-04T13:47:21.060Z,28.91
2023-03-04T13:49:49.440Z,28.99
2023-03-04T13:52:39.409Z,25.77
2023-03-04T13:55:44.495Z,24.96
2023-03-04T13:58:26.549Z,23.90
2023-03-04T14:00:56.355Z,21.82
2023-03-04T14:03:28.495Z,24.08
2023-03-04T14:06:18.516Z,21.73
2023-03-04T14:08:47.776Z,19.69
2023-03-04T14:11:39.992Z,22.47
2023-03-04T14:14:13.189Z,19.80
2023-03-04T14:16:50.696Z,18.13
2023-03-04T14:19:50.608Z,17.02
2023-03-04T14:22:31.493Z,15.43
2023-03-04T14:25:22.414Z,14.51
2023-03-04T14:27:51.102Z,13.80
2023-03-04T14:30:40.808Z,14.49
2023-03-04T14:33:18.210Z,13.58
2023-03-04T14:35:49.204Z,12.68
2023-03-04T14:38:32.777Z,12.20
2023-03-04T14:41:25.344Z,11.74
2023-03-04T14:44:04.243Z,11.39
2023-03-04T14:46:40.488Z,11.13
2023-03-04T14:49:14.206Z,10.95
2023-03-04T14:51:53.048Z,10.52
2023-03-04T14:54:40.934Z,10.33
2023-03-04T14:57:34.264Z,10.21
2023-03-04T15:00:30.830Z,13.07
2023-03-04T15:03:03.854Z,11.49
2023-03-04T15:05:36.747Z,12.16
2023-03-04T15:08:19.216Z,11.36
2023-03-04T15:10:58.384Z,14.02
2023-03-04T15:13:45.378Z,14.73
2023-03-04T15:16:19.553Z,15.62
2023-03-04T15:18:59.022Z,18.34
2023-03-04T15:21:32.617Z,18.95
2023-03-04T15:24:03.497Z,16.02
2023-03-04T15:26:41.957Z,14.04
2023-03-04T15:29:20.828Z,12.88
2023-03-04T15:31:49.829Z,12.01
2023-03-04T15:34:22.172Z,11.33
2023-03-04T15:36:51.690Z,10.60
2023-03-04T15:39:22.010Z,10.10
2023-03-04T15:41:57.665Z,9.69
2023-03-04T15:44:26.195Z,9.18
2023-03-04T15:46:54.357Z,8.75
2023-03-04T15:49:22.726Z,8.50
2023-03-04T15:51:50.904Z,8.25
2023-03-04T15:54:24.540Z,7.99
2023-03-04T15:56:53.007Z,7.79
2023-03-04T15:59:21.722Z,7.63
2023-03-04T16:01:50.305Z,7.49
2023-03-04T16:04:18.997Z,7.35
2023-03-04T16:06:48.943Z,7.16
2023-03-04T16:09:20.012Z,7.08
2023-03-04T16:11:48.466Z,6.95
2023-03-04T16:14:17.619Z,6.81
2023-03-04T16:16:50.771Z,6.69
2023-03-04T16:19:19.582Z,6.60
2023-03-04T16:21:47.816Z,6.51
2023-03-04T16:24:18.968Z,6.48
2023-03-04T16:26:49.278Z,6.31
2023-03-04T16:29:17.642Z,6.25
2023-03-04T16:31:46.038Z,6.14
2023-03-04T16:34:14.485Z,6.04
2023-03-04T16:36:43.082Z,5.95
2023-03-04T16:39:22.106Z,5.90
2023-03-04T16:41:51.543Z,5.79
2023-03-04T16:44:19.798Z,5.71
2023-03-04T16:46:48.403Z,5.66
2023-03-04T16:49:17.131Z,5.65
2023-03-04T16:51:50.847Z,5.65
2023-03-04T16:54:30.788Z,5.59
2023-03-04T16:57:00.856Z,5.57
2023-03-04T16:59:29.699Z,5.57
2023-03-04T17:01:58.139Z,5.57
2023-03-04T17:04:26.558Z,5.48
2023-03-04T17:06:55.167Z,5.45
2023-03-04T17:09:23.887Z,5.39
2023-03-04T17:11:53.567Z,5.35
2023-03-04T17:14:23.292Z,5.33
2023-03-04T17:16:51.704Z,5.29
2023-03-04T17:19:19.944Z,5.27
2023-03-04T17:21:51.397Z,5.25
2023-03-04T17:24:19.607Z,5.23
2023-03-04T17:26:48.070Z,5.19
2023-03-04T17:29:16.418Z,5.17
2023-03-04T17:31:45.012Z,5.15
2023-03-04T17:34:16.919Z,5.15
2023-03-04T17:36:45.352Z,5.11
2023-03-04T17:39:14.091Z,5.07
2023-03-04T17:41:42.564Z,5.06
2023-03-04T17:44:14.078Z,5.05
2023-03-04T17:46:42.576Z,5.01
2023-03-04T17:49:12.201Z,4.98
2023-03-04T17:51:41.092Z,4.96
2023-03-04T17:54:10.522Z,4.93
2023-03-04T17:56:39.906Z,4.85
2023-03-04T17:59:14.098Z,4.82
2023-03-04T18:01:45.381Z,4.74
2023-03-04T18:04:15.074Z,4.71
2023-03-04T18:06:43.899Z,4.65
2023-03-04T18:09:14.690Z,4.60
2023-03-04T18:11:44.042Z,4.56
2023-03-04T18:14:16.317Z,4.51
2023-03-04T18:16:44.741Z,4.50
2023-03-04T18:19:12.963Z,4.50
2023-03-04T18:21:44.578Z,4.43
2023-03-04T18:24:13.299Z,4.39
2023-03-04T18:26:41.905Z,4.41
2023-03-04T18:29:10.357Z,4.38
2023-03-04T18:31:38.818Z,4.33
2023-03-04T18:34:08.010Z,4.24
2023-03-04T18:36:36.480Z,4.22
2023-03-04T18:39:07.628Z,4.21
2023-03-04T18:41:36.259Z,4.19
2023-03-04T18:44:05.245Z,4.21
2023-03-04T18:46:53.852Z,4.20
2023-03-04T18:49:23.147Z,4.15
2023-03-04T18:51:52.047Z,4.21
2023-03-04T18:54:20.697Z,4.22
2023-03-04T18:57:00.583Z,4.19
2023-03-04T18:59:40.552Z,4.15
2023-03-04T19:02:33.800Z,4.13
2023-03-04T19:05:06.704Z,4.06
2023-03-04T19:07:34.970Z,4.10
2023-03-04T19:10:04.185Z,4.09
2023-03-04T19:12:34.309Z,4.06
2023-03-04T19:15:06.199Z,4.07
2023-03-04T19:17:36.374Z,4.05
2023-03-04T19:20:06.824Z,4.05
2023-03-04T19:22:35.732Z,4.05
2023-03-04T19:25:04.948Z,4.03
2023-03-04T19:27:36.182Z,4.01
2023-03-04T19:30:06.146Z,3.96
2023-03-04T19:32:36.920Z,3.94
2023-03-04T19:35:05.424Z,3.93
2023-03-04T19:37:34.377Z,3.94
2023-03-04T19:40:03.382Z,3.94
2023-03-04T19:42:31.935Z,3.93
2023-03-04T19:45:02.095Z,3.88
2023-03-04T19:47:30.700Z,3.82
2023-03-04T19:49:59.278Z,3.78
2023-03-04T19:52:28.045Z,3.77
2023-03-04T19:54:59.163Z,3.77
2023-03-04T19:57:31.072Z,3.70
2023-03-04T20:00:04.872Z,3.68
2023-03-04T20:02:33.511Z,3.67
2023-03-04T20:05:02.165Z,3.64
2023-03-04T20:07:33.942Z,3.60
2023-03-04T20:10:02.949Z,3.56
2023-03-04T20:12:32.602Z,3.50
2023-03-04T20:15:01.188Z,3.36
2023-03-04T20:17:29.347Z,3.25
2023-03-04T20:19:57.957Z,3.26
2023-03-04T20:22:26.856Z,3.30
2023-03-04T20:24:57.312Z,3.25
2023-03-04T20:27:26.896Z,3.25
2023-03-04T20:29:55.542Z,3.26
2023-03-04T20:32:23.934Z,3.27
2023-03-04T20:34:57.416Z,3.24
2023-03-04T20:37:26.420Z,3.01
2023-03-04T20:39:57.399Z,2.98
2023-03-04T20:42:25.638Z,3.03
2023-03-04T20:44:54.448Z,3.08
2023-03-04T20:47:23.150Z,3.11
2023-03-04T20:49:54.681Z,3.09
2023-03-04T20:52:23.186Z,3.07
2023-03-04T20:54:51.465Z,3.09
2023-03-04T20:57:19.952Z,3.07
2023-03-04T20:59:48.176Z,3.09
2023-03-04T21:02:17.750Z,3.08
2023-03-04T21:04:49.626Z,3.06
2023-03-04T21:07:27.868Z,3.02
2023-03-04T21:09:57.348Z,2.97
2023-03-04T21:12:26.446Z,2.99
2023-03-04T21:14:54.603Z,2.98
2023-03-04T21:17:25.087Z,2.96
2023-03-04T21:19:54.055Z,2.96
2023-03-04T21:22:22.465Z,2.96
2023-03-04T21:24:50.754Z,2.91
2023-03-04T21:27:18.974Z,2.91
2023-03-04T21:29:49.623Z,2.89
2023-03-04T21:32:25.396Z,2.83
2023-03-04T21:34:55.646Z,2.77
2023-03-04T21:37:25.809Z,2.75
2023-03-04T21:39:58.421Z,2.73
2023-03-04T21:42:26.810Z,2.70
2023-03-04T21:44:55.226Z,2.69
2023-03-04T21:47:23.751Z,2.69
2023-03-04T21:49:52.143Z,2.63
2023-03-04T21:52:21.488Z,2.57
2023-03-04T21:54:53.317Z,2.46
2023-03-04T21:57:22.913Z,2.44
2023-03-04T21:59:51.307Z,2.42
2023-03-04T22:02:22.253Z,2.46
2023-03-04T22:04:52.039Z,2.33
2023-03-04T22:07:21.426Z,2.30
2023-03-04T22:09:50.066Z,2.04
2023-03-04T22:12:19.710Z,2.05
2023-03-04T22:14:48.339Z,1.91
2023-03-04T22:17:17.065Z,1.85
2023-03-04T22:19:46.094Z,1.77
2023-03-04T22:22:18.148Z,1.64
2023-03-04T22:24:46.520Z,1.46
2023-03-04T22:27:14.884Z,1.22
2023-03-04T22:29:43.270Z,1.17
2023-03-04T22:32:11.509Z,0.94
2023-03-04T22:34:39.790Z,0.76
2023-03-04T22:37:08.242Z,0.93
2023-03-04T22:39:36.586Z,0.90
2023-03-04T22:42:07.120Z,0.89
2023-03-04T22:44:37.052Z,0.94
2023-03-04T22:47:05.638Z,0.98
2023-03-04T22:49:34.712Z,0.99
2023-03-04T22:52:03.354Z,1.00
2023-03-04T22:54:33.761Z,0.90
2023-03-04T22:57:02.448Z,0.95
2023-03-04T22:59:32.390Z,0.86
2023-03-04T23:02:01.289Z,0.76
2023-03-04T23:04:29.915Z,0.76
2023-03-04T23:06:58.196Z,0.71
2023-03-04T23:09:26.943Z,0.69
2023-03-04T23:11:55.734Z,0.70
2023-03-04T23:14:24.605Z,0.70
2023-03-04T23:16:53.279Z,0.72
2023-03-04T23:19:22.332Z,0.59
2023-03-04T23:21:50.913Z,0.55
2023-03-04T23:24:20.560Z,0.56
2023-03-04T23:26:49.221Z,0.48
2023-03-04T23:29:18.837Z,0.40
2023-03-04T23:31:47.439Z,0.33
2023-03-04T23:34:16.099Z,0.34
2023-03-04T23:36:44.986Z,0.39
2023-03-04T23:39:14.378Z,0.31
2023-03-04T23:41:42.934Z,0.46
2023-03-04T23:44:13.139Z,0.46
2023-03-04T23:46:41.895Z,0.49
2023-03-04T23:49:14.457Z,0.50
2023-03-04T23:51:44.769Z,0.35
2023-03-04T23:54:14.460Z,0.30
2023-03-04T23:56:43.203Z,0.26
2023-03-04T23:59:12.783Z,0.28
